< < Back
Terminal Aerodrome Forecast


Current Version              Previous Versions:   1  2  3  4  5  6  7  8  9  

Terminal Aerodrome Forecast

580
FTUS42 KTAE 121120
TAFABY
TAF
KABY 121120Z 1212/1312 22007KT P6SM BKN015
      TEMPO 1213/1216 SCT020
     FM121600 27012G22KT P6SM SCT025
     FM130000 31007KT P6SM SKC=

Latest METAR

606
SAUS70 KWBC 121200 RRL
MTRABY
METAR KABY 121153Z AUTO 23006KT 10SM OVC013 14/13 A3016 RMK AO2 SLP212
T01440128 10144 20133 53003


USA.gov is the U.S. government's official web portal to all federal, state and local government web resources and services.